logo
Rechercher aéroport 
image banner adimage banner adimage banner ad
image banner ad

HKJK - Nairobi Jomo Kenyatta Intl

Situé à Nairobi, Kenya

ICAO - HKJK, IATA - NBO

Données fournies par Airmate  

Information générale

Coordonnées: S1°19'9" E36°55'40"
Élévation : 5330 feet MSL.
Variation magnétique : 1° East
Évalué:
Voir évaluations:
[VIEW]
Voir autres Aéroports à Nairobi Province

Données opérationnelles

Special qualification required
Heure actuelle UTC:
Heure actuelle locale:
Météo
METAR: HKJK 201100Z 23009KT 9999 SCT027 25/12 Q1021 NOSIG
TAF: TAF HKJK 200500Z 2006/2112 23010KT 9999 BKN025 TEMPO 2013/2017 -SHRA FEW026CB BKN027 BECMG 2018/2021 34005KT NSW BKN021 BECMG 2100/2103 22 010KT SCT020 BKN080 BECMG 2106/2109 BKN025
Voir NOTAMs / SUP AIP / TFR affectant cet aéroport [VIEW]
Fréquences de communication: [VIEW]

Pistes:

Identifiant RWYQFULongueur (ft)Largeur (ft)SurfaceLDA (ft)
0654°13510143ASPH13507
24234°13510143ASPH13507

Coordonnées de l'aéroport

Adresse: Nairobi Kenya

Vue satellite de HKJK